Time;durP1;ratioP1;P1;durP2;ratioP2;P2;SDS_P1;SDS_P2;PMS_P1;PMS_P2;Temp;Humidity;BMP_temperature;BMP_pressure;BME280_temperature;BME280_humidity;BME280_pressure;Samples;Min_cycle;Max_cycle;Signal;HPM_P1;HPM_P2
2024/03/24 00:02:25;;;;;;;20.90;10.70;;;;;;;18.00;43.85;98861.11;108001;1254;61225;-67
2024/03/24 00:04:51;;;;;;;22.20;11.90;;;;;;;17.92;44.18;98869.52;107980;1254;59559;-67
2024/03/24 00:07:18;;;;;;;20.30;11.80;;;;;;;18.08;43.94;98857.58;108030;1254;61180;-67
2024/03/24 00:09:45;;;;;;;22.00;12.50;;;;;;;18.17;43.71;98842.77;107982;1254;61142;-67
2024/03/24 00:12:12;;;;;;;24.10;12.90;;;;;;;18.08;43.73;98847.60;107937;1254;73512;-67
2024/03/24 00:14:39;;;;;;;15.90;10.60;;;;;;;18.08;43.92;98845.30;107957;1254;70012;-67
2024/03/24 00:17:07;;;;;;;19.10;11.50;;;;;;;17.95;44.23;98846.83;107949;1254;72683;-67
2024/03/24 00:19:34;;;;;;;17.70;10.70;;;;;;;18.09;43.96;98845.80;107970;1253;61948;-67
2024/03/24 00:22:01;;;;;;;18.40;11.00;;;;;;;17.98;44.13;98845.28;107983;1254;61097;-67
2024/03/24 00:24:28;;;;;;;21.10;11.50;;;;;;;18.07;44.01;98834.80;107976;1254;74591;-67
2024/03/24 00:26:55;;;;;;;18.60;11.30;;;;;;;17.96;44.23;98832.36;107985;1254;70226;-67
2024/03/24 00:29:22;;;;;;;22.00;12.20;;;;;;;17.97;44.35;98830.87;107976;1254;72473;-67
2024/03/24 00:31:48;;;;;;;21.30;11.50;;;;;;;17.93;44.24;98828.55;107839;1254;60973;-67
2024/03/24 00:34:15;;;;;;;21.70;12.10;;;;;;;17.86;44.56;98820.24;107969;1254;61308;-65
2024/03/24 00:36:41;;;;;;;21.20;11.20;;;;;;;17.73;44.72;98820.55;108094;1257;73471;-66
2024/03/24 00:39:08;;;;;;;17.40;10.20;;;;;;;17.62;44.89;98815.95;108130;1253;61142;-68
2024/03/24 00:41:35;;;;;;;21.60;12.40;;;;;;;17.68;45.06;98811.55;108110;1254;71561;-67
2024/03/24 00:44:02;;;;;;;21.00;12.50;;;;;;;18.01;44.34;98803.34;108007;1253;61247;-69
2024/03/24 00:46:29;;;;;;;20.90;11.60;;;;;;;17.93;44.47;98806.55;108020;1254;61202;-68
2024/03/24 00:48:55;;;;;;;19.40;11.90;;;;;;;18.11;44.18;98810.27;108035;1254;73412;-68
2024/03/24 00:51:23;;;;;;;16.70;10.10;;;;;;;18.08;44.13;98806.59;108048;1254;70269;-68
2024/03/24 00:53:50;;;;;;;17.90;11.20;;;;;;;17.81;44.81;98801.73;108110;1254;72466;-67
2024/03/24 00:56:16;;;;;;;20.10;12.40;;;;;;;17.68;44.94;98798.58;108059;1253;61219;-67
2024/03/24 00:58:42;;;;;;;20.90;11.40;;;;;;;17.71;44.93;98794.72;108122;1256;61062;-68
2024/03/24 01:01:09;;;;;;;20.00;11.20;;;;;;;17.50;45.51;98797.63;108105;1254;61311;-67
2024/03/24 01:03:36;;;;;;;20.50;12.80;;;;;;;17.63;45.32;98793.27;108072;1253;70132;-68
2024/03/24 01:06:04;;;;;;;20.30;11.50;;;;;;;17.56;45.49;98793.58;108102;1254;59940;-67
2024/03/24 01:08:31;;;;;;;21.30;13.70;;;;;;;17.54;45.57;98793.07;108134;1254;61122;-68
2024/03/24 01:11:03;;;;;;;22.60;13.10;;;;;;;17.69;45.23;98783.05;108149;1257;61125;-67
2024/03/24 01:13:30;;;;;;;22.50;12.90;;;;;;;17.49;45.70;98782.16;108130;1254;74589;-70
2024/03/24 01:15:56;;;;;;;23.20;12.20;;;;;;;17.77;45.25;98782.33;108105;1254;68792;-67
2024/03/24 01:18:23;;;;;;;19.80;13.30;;;;;;;17.63;45.45;98792.62;108046;1253;61100;-68
2024/03/24 01:20:49;;;;;;;23.20;13.10;;;;;;;17.53;45.85;98790.49;108114;1253;61254;-67
2024/03/24 01:23:16;;;;;;;24.80;13.40;;;;;;;17.59;45.69;98791.50;108059;1253;61111;-67
2024/03/24 01:25:44;;;;;;;22.90;14.00;;;;;;;17.33;46.19;98785.64;108048;1254;61302;-68
2024/03/24 01:28:10;;;;;;;23.30;12.80;;;;;;;17.45;45.99;98785.30;108058;1254;68747;-67
2024/03/24 01:30:37;;;;;;;22.50;13.60;;;;;;;17.46;45.86;98783.27;108023;1253;72700;-67
2024/03/24 01:33:04;;;;;;;24.80;12.40;;;;;;;17.34;46.12;98785.73;108048;1257;61715;-67
2024/03/24 01:35:30;;;;;;;26.50;14.30;;;;;;;17.45;45.96;98786.40;107969;1256;61241;-68
2024/03/24 01:37:57;;;;;;;22.70;12.20;;;;;;;17.39;46.04;98786.34;108000;1254;74512;-68
2024/03/24 01:40:24;;;;;;;27.20;14.20;;;;;;;16.62;47.47;98791.23;107969;1254;61107;-68
2024/03/24 01:42:50;;;;;;;24.60;14.60;;;;;;;16.39;48.20;98789.94;107984;1256;72763;-68
2024/03/24 01:45:18;;;;;;;22.80;14.40;;;;;;;16.51;48.03;98783.66;108055;1257;59945;-67
2024/03/24 01:47:44;;;;;;;25.10;14.60;;;;;;;16.48;47.92;98782.72;108032;1257;61142;-67
2024/03/24 01:50:12;;;;;;;22.90;14.20;;;;;;;16.09;48.89;98776.61;107863;1254;61229;-67
2024/03/24 01:52:39;;;;;;;22.30;13.10;;;;;;;16.31;48.50;98771.48;108036;1254;69994;-68
2024/03/24 01:55:06;;;;;;;26.10;12.90;;;;;;;16.08;48.70;98771.05;107955;1254;71353;-67
2024/03/24 01:57:33;;;;;;;23.60;13.80;;;;;;;16.00;49.28;98768.90;107829;1254;61145;-67
2024/03/24 01:59:59;;;;;;;24.30;13.70;;;;;;;16.35;48.46;98763.70;108024;1254;61223;-68
2024/03/24 02:02:26;;;;;;;23.70;13.70;;;;;;;16.24;48.52;98765.14;107961;1254;74594;-67
2024/03/24 02:04:52;;;;;;;23.40;13.60;;;;;;;16.20;48.54;98766.89;108040;1254;61129;-68
2024/03/24 02:07:19;;;;;;;25.00;12.80;;;;;;;16.34;48.21;98762.04;108015;1254;72528;-67
2024/03/24 02:09:46;;;;;;;22.30;13.00;;;;;;;16.35;48.36;98757.01;108015;1254;62091;-68
2024/03/24 02:12:13;;;;;;;23.60;14.20;;;;;;;16.68;47.46;98750.57;107970;1254;61216;-68
2024/03/24 02:14:40;;;;;;;22.90;14.00;;;;;;;16.65;47.50;98749.36;108026;1254;74435;-67
2024/03/24 02:17:07;;;;;;;24.20;13.80;;;;;;;16.57;47.64;98742.38;108005;1254;70682;-67
2024/03/24 02:19:33;;;;;;;22.80;13.30;;;;;;;16.61;47.43;98743.82;107956;1254;61129;-68
2024/03/24 02:22:00;;;;;;;22.70;13.30;;;;;;;16.42;47.94;98741.86;107809;1254;61128;-68
2024/03/24 02:24:26;;;;;;;25.90;14.10;;;;;;;16.33;48.10;98731.12;107965;1254;61283;-67
2024/03/24 02:26:53;;;;;;;23.50;13.70;;;;;;;16.50;47.62;98740.33;107989;1254;61081;-68
2024/03/24 02:29:19;;;;;;;28.60;14.80;;;;;;;16.29;48.20;98755.54;108025;1254;61254;-67
2024/03/24 02:31:46;;;;;;;26.50;14.40;;;;;;;16.33;48.05;98760.91;107986;1254;61344;-68
2024/03/24 02:34:12;;;;;;;26.40;13.70;;;;;;;16.14;48.56;98758.40;107985;1254;61188;-68
2024/03/24 02:36:40;;;;;;;25.00;14.10;;;;;;;16.36;48.07;98749.64;108030;1253;60043;-67
2024/03/24 02:39:06;;;;;;;22.30;13.20;;;;;;;16.44;47.55;98743.11;108034;1253;74706;-67
2024/03/24 02:41:33;;;;;;;21.50;13.10;;;;;;;16.41;47.91;98738.75;108095;1257;70112;-67
2024/03/24 02:44:00;;;;;;;27.20;15.20;;;;;;;16.40;47.59;98735.30;108075;1254;71494;-67
2024/03/24 02:46:26;;;;;;;25.30;13.40;;;;;;;16.31;47.84;98733.97;108078;1253;61125;-67
2024/03/24 02:48:53;;;;;;;24.70;14.80;;;;;;;16.17;48.09;98737.77;108124;1253;61293;-67
2024/03/24 02:51:20;;;;;;;28.90;13.30;;;;;;;16.68;46.95;98736.93;108101;1253;74571;-68
2024/03/24 02:53:46;;;;;;;26.60;15.10;;;;;;;16.21;47.73;98740.77;108069;1253;70127;-67
2024/03/24 02:56:13;;;;;;;24.50;14.50;;;;;;;16.21;47.51;98735.00;108014;1256;61360;-67
2024/03/24 02:58:39;;;;;;;27.60;14.80;;;;;;;16.01;48.03;98734.81;108046;1253;61211;-67
2024/03/24 03:01:06;;;;;;;25.30;14.70;;;;;;;15.96;48.09;98737.01;108053;1253;62727;-67
2024/03/24 03:03:33;;;;;;;27.10;14.50;;;;;;;15.93;48.08;98737.60;108008;1254;73371;-67
2024/03/24 03:06:00;;;;;;;27.70;15.00;;;;;;;16.05;47.79;98740.36;108051;1257;70052;-68
2024/03/24 03:08:27;;;;;;;26.20;14.90;;;;;;;16.04;47.76;98740.75;108001;1254;72474;-67
2024/03/24 03:10:53;;;;;;;26.10;14.70;;;;;;;16.15;47.41;98749.46;108076;1253;61244;-68
2024/03/24 03:13:20;;;;;;;28.80;16.40;;;;;;;16.02;47.69;98744.48;108106;1253;61336;-68
2024/03/24 03:15:46;;;;;;;27.00;14.90;;;;;;;16.22;47.09;98738.29;108125;1253;61145;-68
2024/03/24 03:20:45;;;;;;;25.80;15.50;;;;;;;15.10;50.10;98734.54;105037;1287;600657;-68
2024/03/24 03:23:11;;;;;;;28.00;16.00;;;;;;;16.34;46.76;98731.02;107289;1268;59506;-68
2024/03/24 03:25:38;;;;;;;27.70;15.50;;;;;;;16.18;46.93;98733.06;107331;1267;59717;-68
2024/03/24 03:28:05;;;;;;;26.40;15.40;;;;;;;16.21;46.82;98733.16;107859;1260;59119;-68
2024/03/24 03:30:32;;;;;;;27.80;17.40;;;;;;;16.42;46.33;98731.26;107838;1257;59500;-67
2024/03/24 03:32:59;;;;;;;27.60;15.20;;;;;;;15.88;47.28;98732.30;107740;1254;162428;-69
2024/03/24 03:35:25;;;;;;;30.20;17.00;;;;;;;15.92;47.25;98732.36;108029;1260;59489;-68
2024/03/24 03:37:51;;;;;;;28.20;14.80;;;;;;;15.91;47.51;98728.03;108062;1258;59125;-68
2024/03/24 03:40:18;;;;;;;30.30;15.90;;;;;;;15.86;47.42;98726.46;108020;1256;59474;-66
2024/03/24 03:42:45;;;;;;;25.30;15.10;;;;;;;16.19;46.82;98726.10;108062;1257;59624;-68
2024/03/24 03:45:14;;;;;;;29.80;15.50;;;;;;;16.20;46.65;98728.34;108003;1258;72722;-67
2024/03/24 03:47:41;;;;;;;28.70;16.10;;;;;;;16.07;46.72;98727.36;107874;1257;60866;-67
2024/03/24 03:50:13;;;;;;;27.90;15.10;;;;;;;15.72;47.47;98727.98;108046;1255;60398;-67
2024/03/24 03:52:39;;;;;;;29.00;15.80;;;;;;;16.01;46.89;98728.63;107995;1257;74326;-67
2024/03/24 03:55:11;;;;;;;30.50;15.70;;;;;;;15.74;47.44;98729.62;107977;1257;70374;-68
2024/03/24 03:57:38;;;;;;;30.00;16.00;;;;;;;15.76;47.43;98727.42;107808;1261;72459;-68
2024/03/24 04:00:12;;;;;;;27.90;16.20;;;;;;;16.07;46.64;98725.98;108116;1254;60988;-66
2024/03/24 04:02:40;;;;;;;27.70;15.20;;;;;;;16.21;46.32;98725.73;108226;1252;60044;-67
2024/03/24 04:05:07;;;;;;;28.70;16.50;;;;;;;15.93;46.85;98728.58;108294;1253;73841;-67
2024/03/24 04:07:34;;;;;;;31.60;16.90;;;;;;;16.03;46.59;98719.60;108307;1253;70252;-67
2024/03/24 04:10:01;;;;;;;29.80;13.50;;;;;;;16.09;46.44;98713.94;108201;1254;73131;-68
2024/03/24 04:12:29;;;;;;;33.70;17.60;;;;;;;15.71;47.23;98713.17;108186;1254;61157;-67
2024/03/24 04:14:57;;;;;;;28.20;16.80;;;;;;;15.79;47.10;98715.52;108248;1255;60273;-67
2024/03/24 04:17:24;;;;;;;29.70;16.60;;;;;;;15.72;47.26;98717.67;108215;1252;74019;-68
2024/03/24 04:19:51;;;;;;;28.50;14.80;;;;;;;15.96;46.65;98718.73;108152;1254;70526;-67
2024/03/24 04:22:18;;;;;;;33.90;17.90;;;;;;;15.88;46.86;98729.02;108237;1254;72620;-66
2024/03/24 04:24:48;;;;;;;32.70;18.60;;;;;;;15.98;46.61;98736.27;108199;1254;60424;-68
2024/03/24 04:27:18;;;;;;;28.10;16.30;;;;;;;15.86;46.66;98726.67;108277;1252;60257;-67
2024/03/24 04:29:44;;;;;;;28.00;16.60;;;;;;;15.68;47.28;98728.77;108328;1252;73654;-67
2024/03/24 04:32:11;;;;;;;30.00;17.10;;;;;;;15.74;47.05;98725.83;108307;1254;70166;-67
2024/03/24 04:34:38;;;;;;;29.00;16.30;;;;;;;15.61;47.31;98723.83;108272;1254;72332;-67
2024/03/24 04:37:05;;;;;;;28.90;15.50;;;;;;;15.55;47.44;98721.52;108180;1253;60958;-67
2024/03/24 04:39:32;;;;;;;28.00;14.40;;;;;;;15.69;47.22;98721.66;108152;1254;60418;-67
2024/03/24 04:41:59;;;;;;;31.60;17.10;;;;;;;15.46;47.65;98721.15;108158;1253;74181;-67
2024/03/24 04:44:26;;;;;;;37.00;17.30;;;;;;;15.55;47.37;98721.85;108161;1254;70099;-67
2024/03/24 04:46:53;;;;;;;28.00;16.30;;;;;;;15.51;47.44;98718.63;108166;1254;72604;-67
2024/03/24 04:49:22;;;;;;;31.60;16.90;;;;;;;15.32;47.85;98715.95;108169;1254;60880;-67
2024/03/24 04:51:48;;;;;;;35.50;19.60;;;;;;;15.31;47.74;98716.16;108179;1253;60389;-67
2024/03/24 04:54:15;;;;;;;33.60;19.30;;;;;;;15.34;47.73;98716.45;108221;1254;73785;-67
2024/03/24 04:56:42;;;;;;;31.90;17.50;;;;;;;15.56;47.10;98717.52;108219;1255;70232;-67
2024/03/24 04:59:08;;;;;;;31.10;17.10;;;;;;;15.54;47.17;98711.87;108207;1253;72809;-66
2024/03/24 05:01:35;;;;;;;32.70;17.60;;;;;;;15.53;47.28;98715.78;108200;1254;60855;-68
2024/03/24 05:04:04;;;;;;;32.20;17.60;;;;;;;15.52;47.15;98716.98;108167;1254;60491;-67
2024/03/24 05:06:31;;;;;;;32.70;17.00;;;;;;;15.35;47.55;98713.89;108130;1254;73649;-67
2024/03/24 05:08:58;;;;;;;31.20;17.80;;;;;;;15.15;47.99;98716.33;108144;1254;70395;-66
2024/03/24 05:11:26;;;;;;;31.50;16.00;;;;;;;15.43;47.37;98715.74;108146;1255;73045;-67
2024/03/24 05:13:52;;;;;;;34.70;18.10;;;;;;;15.27;47.72;98721.92;108129;1255;61037;-68
2024/03/24 05:16:19;;;;;;;32.80;17.80;;;;;;;15.63;46.84;98717.17;108138;1253;60023;-68
2024/03/24 05:18:46;;;;;;;36.50;17.90;;;;;;;15.56;46.99;98714.50;108177;1253;73813;-67
2024/03/24 05:21:13;;;;;;;35.50;18.80;;;;;;;15.49;47.10;98714.75;108174;1254;70511;-67
2024/03/24 05:23:39;;;;;;;31.40;16.60;;;;;;;15.69;46.62;98713.33;108134;1254;72426;-67
2024/03/24 05:26:06;;;;;;;34.70;20.10;;;;;;;15.48;47.28;98715.16;108135;1253;60348;-67
2024/03/24 05:28:32;;;;;;;37.80;17.60;;;;;;;15.34;47.47;98715.94;108055;1253;60415;-67
2024/03/24 05:31:12;;;;;;;30.40;16.40;;;;;;;15.55;47.01;98712.08;108160;1254;73601;-67
2024/03/24 05:33:39;;;;;;;36.70;18.70;;;;;;;15.27;47.55;98715.58;108086;1258;60159;-67
2024/03/24 05:36:06;;;;;;;34.50;17.50;;;;;;;15.48;47.11;98715.16;108211;1256;72519;-67
2024/03/24 05:38:32;;;;;;;31.10;17.10;;;;;;;15.40;47.18;98713.83;108115;1254;60530;-67
2024/03/24 05:41:03;;;;;;;31.40;16.90;;;;;;;15.16;47.73;98716.65;108265;1253;60389;-67
2024/03/24 05:43:30;;;;;;;37.80;20.60;;;;;;;15.23;47.54;98712.94;108261;1254;72651;-67
2024/03/24 05:45:57;;;;;;;31.20;15.50;;;;;;;15.31;47.28;98712.10;108284;1252;69139;-67
2024/03/24 05:48:24;;;;;;;38.10;20.50;;;;;;;15.32;47.26;98710.75;108299;1251;72496;-68
2024/03/24 05:50:58;;;;;;;35.60;18.60;;;;;;;15.42;47.08;98713.73;108351;1251;60315;-67
2024/03/24 05:53:24;;;;;;;31.50;17.90;;;;;;;15.14;47.61;98712.05;108307;1253;59487;-67
2024/03/24 05:55:51;;;;;;;33.20;17.20;;;;;;;15.08;47.58;98710.54;108176;1253;73753;-67
2024/03/24 05:58:18;;;;;;;33.20;17.50;;;;;;;14.90;48.05;98712.44;108232;1254;70078;-67
2024/03/24 06:00:46;;;;;;;34.20;17.60;;;;;;;15.07;47.72;98708.70;108281;1253;72680;-67
2024/03/24 06:03:12;;;;;;;36.10;18.80;;;;;;;15.26;47.30;98709.48;108295;1253;61017;-67
2024/03/24 06:05:39;;;;;;;34.20;18.50;;;;;;;15.30;47.23;98711.13;108308;1252;60304;-67
2024/03/24 06:08:10;;;;;;;45.00;21.60;;;;;;;15.32;47.11;98709.55;108283;1251;73852;-67
2024/03/24 06:10:37;;;;;;;31.80;18.10;;;;;;;15.35;47.03;98706.47;108174;1254;70147;-67
2024/03/24 06:13:04;;;;;;;37.80;19.90;;;;;;;15.14;47.43;98709.15;108185;1256;73177;-67
2024/03/24 06:15:31;;;;;;;33.50;15.10;;;;;;;15.04;47.51;98709.41;108205;1254;60837;-67
2024/03/24 06:18:04;;;;;;;29.90;17.30;;;;;;;15.02;47.59;98707.79;108194;1253;60315;-67
2024/03/24 06:20:35;;;;;;;38.40;19.10;;;;;;;15.36;46.95;98705.52;108224;1253;72886;-67
2024/03/24 06:23:02;;;;;;;38.10;20.20;;;;;;;15.37;46.84;98701.40;108203;1254;69192;-68
2024/03/24 06:25:29;;;;;;;38.30;20.10;;;;;;;15.19;47.25;98700.66;108203;1253;72539;-67
2024/03/24 06:27:59;;;;;;;35.40;18.80;;;;;;;15.53;46.51;98694.75;108232;1254;59605;-67
2024/03/24 06:30:25;;;;;;;36.30;20.40;;;;;;;15.43;46.78;98699.13;108333;1252;60364;-67
2024/03/24 06:32:52;;;;;;;35.40;18.90;;;;;;;15.47;46.53;98697.00;108323;1254;73880;-68
2024/03/24 06:35:19;;;;;;;35.50;20.30;;;;;;;15.41;46.67;98694.66;108296;1256;69516;-67
2024/03/24 06:37:46;;;;;;;34.10;19.80;;;;;;;15.01;47.42;98695.73;108255;1253;60356;-68
2024/03/24 06:40:13;;;;;;;34.60;18.00;;;;;;;14.86;47.74;98702.20;108202;1254;60832;-68
2024/03/24 06:42:44;;;;;;;34.10;18.20;;;;;;;15.11;47.36;98703.73;108203;1253;60695;-67
2024/03/24 06:45:11;;;;;;;32.50;19.00;;;;;;;15.29;46.94;98702.15;108177;1252;74345;-67
2024/03/24 06:47:38;;;;;;;36.10;19.60;;;;;;;15.16;46.96;98700.34;108242;1252;70215;-67
2024/03/24 06:50:05;;;;;;;37.70;19.50;;;;;;;15.40;46.70;98697.08;108282;1254;72626;-67
2024/03/24 06:52:35;;;;;;;37.00;19.60;;;;;;;15.44;46.70;98694.45;108310;1252;60930;-67
2024/03/24 06:55:02;;;;;;;36.80;19.30;;;;;;;15.60;46.28;98698.80;108242;1253;60248;-68
2024/03/24 06:57:29;;;;;;;34.70;18.00;;;;;;;15.46;46.47;98699.58;108262;1253;73946;-67
2024/03/24 06:59:55;;;;;;;32.90;18.60;;;;;;;15.36;46.62;98699.30;108262;1254;60303;-67
2024/03/24 07:02:22;;;;;;;35.30;19.00;;;;;;;15.45;46.42;98700.20;108259;1252;60197;-67
2024/03/24 07:04:49;;;;;;;37.20;20.00;;;;;;;15.41;46.68;98695.55;108199;1253;59990;-68
2024/03/24 07:07:16;;;;;;;42.80;20.00;;;;;;;15.73;46.13;98698.67;108313;1253;60320;-68
2024/03/24 07:09:42;;;;;;;35.30;18.50;;;;;;;15.76;45.88;98698.96;108072;1252;72890;-67
2024/03/24 07:12:09;;;;;;;41.50;20.90;;;;;;;15.83;45.71;98698.73;108304;1255;70202;-67
2024/03/24 07:14:36;;;;;;;36.60;20.50;;;;;;;15.83;45.73;98704.20;108232;1254;72533;-67
2024/03/24 07:17:03;;;;;;;38.80;19.50;;;;;;;15.56;46.24;98698.80;108234;1253;61224;-67
2024/03/24 07:19:30;;;;;;;37.50;19.40;;;;;;;15.57;46.25;98700.26;108180;1253;60306;-67
2024/03/24 07:21:56;;;;;;;36.20;20.10;;;;;;;15.61;46.19;98696.42;108181;1254;59688;-67
2024/03/24 07:24:22;;;;;;;35.50;19.20;;;;;;;15.90;45.63;98698.36;108244;1253;61043;-68
2024/03/24 07:26:49;;;;;;;37.60;20.00;;;;;;;15.79;45.70;98703.66;108279;1254;61327;-68
2024/03/24 07:29:15;;;;;;;36.80;19.70;;;;;;;15.75;45.77;98696.75;108212;1254;61266;-68
2024/03/24 07:31:42;;;;;;;36.10;18.40;;;;;;;15.81;45.70;98698.36;108092;1254;61124;-67
2024/03/24 07:34:09;;;;;;;37.70;19.10;;;;;;;15.73;46.06;98696.92;108272;1254;61032;-68
2024/03/24 07:36:36;;;;;;;43.40;21.60;;;;;;;15.66;45.97;98690.75;108287;1253;70511;-67
2024/03/24 07:39:03;;;;;;;40.10;21.40;;;;;;;15.89;45.71;98691.66;108234;1252;72832;-67
2024/03/24 07:41:30;;;;;;;36.40;20.50;;;;;;;16.06;45.44;98684.79;108240;1253;61186;-68
2024/03/24 07:43:56;;;;;;;38.30;22.20;;;;;;;16.33;44.95;98683.13;108272;1254;61150;-67
2024/03/24 07:46:23;;;;;;;36.50;20.50;;;;;;;16.42;45.02;98684.00;108210;1254;73495;-67
2024/03/24 07:48:49;;;;;;;38.50;21.00;;;;;;;16.32;44.95;98677.38;108120;1253;70406;-67
2024/03/24 07:51:20;;;;;;;36.50;19.90;;;;;;;16.36;44.73;98673.83;108207;1253;72685;-68
2024/03/24 07:53:50;;;;;;;36.90;18.80;;;;;;;16.38;44.75;98666.38;108151;1253;61117;-68
2024/03/24 07:56:17;;;;;;;38.80;21.70;;;;;;;16.36;44.61;98669.44;108334;1252;61195;-67
2024/03/24 07:58:44;;;;;;;36.10;19.60;;;;;;;16.53;44.38;98664.77;108270;1252;72430;-67
2024/03/24 08:01:14;;;;;;;33.60;19.70;;;;;;;16.33;44.61;98663.80;108247;1254;70355;-67
2024/03/24 08:03:45;;;;;;;34.40;19.00;;;;;;;16.34;44.57;98656.48;108103;1253;72393;-67
2024/03/24 08:06:12;;;;;;;35.10;19.40;;;;;;;16.19;45.26;98661.48;108274;1253;61163;-67
2024/03/24 08:08:39;;;;;;;39.70;20.90;;;;;;;16.43;45.04;98656.39;108210;1253;61314;-67
2024/03/24 08:11:05;;;;;;;37.70;19.60;;;;;;;16.51;45.01;98650.12;108307;1253;74603;-67
2024/03/24 08:13:32;;;;;;;40.40;19.80;;;;;;;16.26;45.68;98652.73;108270;1253;68685;-67
2024/03/24 08:15:59;;;;;;;34.40;19.80;;;;;;;16.52;45.18;98653.04;108224;1252;72544;-67
2024/03/24 08:18:25;;;;;;;40.50;19.40;;;;;;;16.61;45.50;98645.73;108245;1254;60820;-67
2024/03/24 08:20:52;;;;;;;41.10;20.60;;;;;;;16.60;45.37;98646.68;108230;1252;60946;-67
2024/03/24 08:23:23;;;;;;;31.80;17.80;;;;;;;16.74;45.13;98645.98;108269;1254;74700;-67
2024/03/24 08:25:50;;;;;;;34.60;19.60;;;;;;;16.66;45.21;98643.31;108291;1254;70092;-67
2024/03/24 08:28:19;;;;;;;39.80;22.20;;;;;;;16.68;45.03;98629.48;108235;1253;72598;-67
2024/03/24 08:30:46;;;;;;;40.70;20.20;;;;;;;17.04;44.60;98626.21;108266;1252;61340;-67
2024/03/24 08:33:12;;;;;;;38.10;19.90;;;;;;;16.96;44.87;98620.35;108257;1252;61397;-67
2024/03/24 08:35:39;;;;;;;37.20;20.20;;;;;;;17.21;44.42;98614.27;108230;1253;73199;-67
2024/03/24 08:38:08;;;;;;;37.20;20.70;;;;;;;16.99;44.62;98618.15;108326;1254;70279;-67
2024/03/24 08:40:35;;;;;;;37.40;19.80;;;;;;;16.81;44.57;98610.99;108214;1254;71723;-67
2024/03/24 08:43:03;;;;;;;35.30;19.30;;;;;;;16.88;44.79;98612.17;108114;1253;61233;-67
2024/03/24 08:45:30;;;;;;;27.70;16.00;;;;;;;16.83;44.93;98609.77;108304;1254;61119;-67
2024/03/24 08:47:56;;;;;;;38.40;19.30;;;;;;;16.86;44.81;98605.06;108263;1254;73456;-67
2024/03/24 08:50:23;;;;;;;30.50;16.80;;;;;;;16.95;44.79;98603.96;108228;1252;70533;-67
2024/03/24 08:52:50;;;;;;;34.10;18.90;;;;;;;16.80;45.17;98604.39;108228;1253;71521;-67
2024/03/24 08:55:16;;;;;;;34.40;19.80;;;;;;;17.24;44.29;98592.23;108206;1253;61126;-67
2024/03/24 08:57:44;;;;;;;33.40;17.90;;;;;;;17.22;44.47;98593.06;108190;1253;61176;-67
2024/03/24 09:00:12;;;;;;;39.10;19.50;;;;;;;17.20;44.68;98600.33;108215;1254;73495;-67
2024/03/24 09:02:38;;;;;;;34.70;18.60;;;;;;;17.33;44.46;98604.88;108287;1253;69244;-67
2024/03/24 09:05:05;;;;;;;40.80;20.90;;;;;;;17.28;44.84;98596.69;108227;1253;72543;-67
2024/03/24 09:07:32;;;;;;;35.30;19.40;;;;;;;17.28;44.63;98600.30;108276;1252;61368;-67
2024/03/24 09:09:59;;;;;;;34.60;18.10;;;;;;;17.18;44.70;98595.95;108333;1253;61244;-67
2024/03/24 09:12:25;;;;;;;33.50;17.70;;;;;;;17.08;45.30;98603.58;108280;1252;73333;-66
2024/03/24 09:14:54;;;;;;;33.50;17.30;;;;;;;17.08;45.20;98608.31;108207;1256;70203;-67
2024/03/24 09:17:20;;;;;;;37.80;19.20;;;;;;;17.24;45.49;98610.29;108387;1254;71523;-67
2024/03/24 09:19:47;;;;;;;35.20;16.80;;;;;;;17.31;45.41;98604.16;108141;1251;63040;-67
2024/03/24 09:22:14;;;;;;;34.00;19.00;;;;;;;17.31;45.43;98604.37;108266;1254;60937;-67
2024/03/24 09:24:40;;;;;;;36.20;19.10;;;;;;;17.44;45.22;98604.23;108268;1253;74547;-68
2024/03/24 09:27:07;;;;;;;32.20;18.70;;;;;;;17.41;45.43;98604.19;108259;1254;70065;-67
2024/03/24 09:29:34;;;;;;;34.20;18.80;;;;;;;17.22;46.12;98607.96;108298;1254;71573;-67
2024/03/24 09:32:00;;;;;;;32.40;18.40;;;;;;;17.28;45.89;98602.51;108220;1252;61899;-68
2024/03/24 09:34:29;;;;;;;37.20;21.20;;;;;;;17.18;46.24;98606.42;108244;1253;61137;-67
2024/03/24 09:36:56;;;;;;;32.30;17.20;;;;;;;17.61;45.11;98583.57;108082;1253;74554;-68
2024/03/24 09:39:25;;;;;;;35.50;20.10;;;;;;;17.54;45.03;98581.55;108224;1253;70430;-67
2024/03/24 09:41:53;;;;;;;32.10;18.60;;;;;;;17.52;45.12;98570.55;108243;1255;72726;-67
2024/03/24 09:44:19;;;;;;;33.80;19.50;;;;;;;17.55;45.10;98566.55;108097;1253;61846;-67
2024/03/24 09:46:46;;;;;;;36.60;19.20;;;;;;;17.56;44.87;98562.36;108065;1252;61112;-67
2024/03/24 09:49:14;;;;;;;38.30;19.00;;;;;;;17.39;45.61;98571.02;108332;1254;74402;-67
2024/03/24 09:51:42;;;;;;;40.80;18.20;;;;;;;17.21;45.70;98565.86;108228;1253;69216;-67
2024/03/24 09:54:13;;;;;;;33.80;19.70;;;;;;;17.25;45.83;98578.50;108266;1251;71542;-68
2024/03/24 09:56:40;;;;;;;32.30;18.90;;;;;;;17.42;45.69;98564.30;108272;1252;61967;-67
2024/03/24 09:59:07;;;;;;;37.90;19.30;;;;;;;17.65;45.15;98573.80;108242;1253;59180;-67
2024/03/24 10:01:38;;;;;;;34.90;19.90;;;;;;;17.77;44.92;98565.63;108220;1252;73809;-67
2024/03/24 10:04:05;;;;;;;27.80;15.20;;;;;;;17.73;45.05;98573.95;108267;1254;70220;-67
2024/03/24 10:06:33;;;;;;;33.10;18.00;;;;;;;17.57;44.81;98576.48;108180;1253;72486;-67
2024/03/24 10:09:00;;;;;;;31.10;18.00;;;;;;;17.45;45.24;98578.07;108393;1251;64043;-67
2024/03/24 10:11:30;;;;;;;33.40;17.90;;;;;;;16.95;46.09;98583.38;108328;1254;61233;-67
2024/03/24 10:14:02;;;;;;;33.90;18.50;;;;;;;17.21;45.97;98570.48;108216;1253;74619;-67
2024/03/24 10:16:29;;;;;;;34.90;18.30;;;;;;;17.43;45.43;98578.41;108195;1252;69768;-67
2024/03/24 10:18:56;;;;;;;34.60;16.40;;;;;;;17.39;45.29;98575.23;108222;1254;72647;-67
2024/03/24 10:21:22;;;;;;;33.20;19.00;;;;;;;17.01;45.86;98586.62;108301;1253;61044;-68
2024/03/24 10:23:49;;;;;;;31.30;17.80;;;;;;;17.28;45.63;98591.63;108327;1251;61192;-67
2024/03/24 10:26:22;;;;;;;29.00;17.30;;;;;;;17.21;45.80;98576.52;108256;1253;74594;-67
2024/03/24 10:28:50;;;;;;;31.30;19.30;;;;;;;17.41;45.83;98570.30;108165;1253;70890;-67
2024/03/24 10:31:17;;;;;;;28.90;18.60;;;;;;;17.50;45.66;98572.34;108198;1254;71559;-67
2024/03/24 10:33:46;;;;;;;32.50;16.90;;;;;;;17.32;46.45;98576.20;108179;1253;61890;-67
2024/03/24 10:36:13;;;;;;;32.20;18.30;;;;;;;17.24;46.29;98585.25;108244;1251;61308;-68
2024/03/24 10:38:41;;;;;;;27.20;14.50;;;;;;;17.26;46.38;98587.44;108058;1254;74038;-67
2024/03/24 10:41:08;;;;;;;30.40;17.30;;;;;;;17.19;46.65;98591.21;108120;1254;69259;-67
2024/03/24 10:43:35;;;;;;;39.80;17.80;;;;;;;17.15;46.71;98585.19;108280;1253;73909;-67
2024/03/24 10:46:02;;;;;;;28.50;17.10;;;;;;;17.09;46.75;98584.34;108217;1256;61054;-67
2024/03/24 10:48:33;;;;;;;29.70;18.10;;;;;;;17.18;46.20;98590.98;108267;1253;61233;-67
2024/03/24 10:51:01;;;;;;;31.70;17.00;;;;;;;17.20;46.22;98591.70;108339;1254;72916;-67
2024/03/24 10:53:29;;;;;;;28.60;16.60;;;;;;;17.45;46.08;98582.48;108349;1254;70379;-67
2024/03/24 10:55:56;;;;;;;29.70;17.10;;;;;;;17.50;45.76;98583.30;108294;1252;71623;-67
2024/03/24 10:58:23;;;;;;;29.30;17.30;;;;;;;17.46;45.98;98582.12;108258;1256;60744;-67
2024/03/24 11:00:51;;;;;;;32.80;17.80;;;;;;;17.64;45.99;98579.59;108126;1254;60347;-67
2024/03/24 11:03:18;;;;;;;32.00;18.40;;;;;;;17.84;45.14;98572.27;108207;1254;74624;-67
2024/03/24 11:05:51;;;;;;;26.60;15.30;;;;;;;17.54;45.41;98574.29;108242;1253;69339;-67
2024/03/24 11:08:19;;;;;;;33.30;18.70;;;;;;;17.60;45.52;98571.61;108064;1251;70869;-67
2024/03/24 11:10:46;;;;;;;28.30;16.30;;;;;;;17.69;45.69;98573.02;108336;1253;61666;-67
2024/03/24 11:13:26;;;;;;;27.60;16.90;;;;;;;17.11;46.37;98581.47;108298;1252;61154;-67